sensor_id;sensor_type;location;lat;lon;timestamp;temperature;humidity
20977;DHT22;10647;51.016;3.720;2023-03-11T00:01:26;3.00;99.90
20977;DHT22;10647;51.016;3.720;2023-03-11T00:03:56;3.10;99.90
20977;DHT22;10647;51.016;3.720;2023-03-11T00:06:26;3.10;99.90
20977;DHT22;10647;51.016;3.720;2023-03-11T00:08:54;3.10;99.90
20977;DHT22;10647;51.016;3.720;2023-03-11T00:11:22;3.20;99.90
20977;DHT22;10647;51.016;3.720;2023-03-11T00:13:49;3.20;99.90
20977;DHT22;10647;51.016;3.720;2023-03-11T00:16:36;3.30;99.90
20977;DHT22;10647;51.016;3.720;2023-03-11T00:19:04;3.30;99.90
20977;DHT22;10647;51.016;3.720;2023-03-11T00:21:32;3.30;99.90
20977;DHT22;10647;51.016;3.720;2023-03-11T00:24:00;3.30;99.90
20977;DHT22;10647;51.016;3.720;2023-03-11T00:26:30;3.30;99.90
20977;DHT22;10647;51.016;3.720;2023-03-11T00:28:57;3.20;99.90
20977;DHT22;10647;51.016;3.720;2023-03-11T00:31:25;3.10;99.90
20977;DHT22;10647;51.016;3.720;2023-03-11T00:33:58;3.00;99.90
20977;DHT22;10647;51.016;3.720;2023-03-11T00:36:28;2.90;99.90
20977;DHT22;10647;51.016;3.720;2023-03-11T00:39:00;2.90;99.90
20977;DHT22;10647;51.016;3.720;2023-03-11T00:41:29;2.80;99.90
20977;DHT22;10647;51.016;3.720;2023-03-11T00:43:56;2.80;99.90
20977;DHT22;10647;51.016;3.720;2023-03-11T00:46:24;2.80;99.90
20977;DHT22;10647;51.016;3.720;2023-03-11T00:48:52;2.70;99.90
20977;DHT22;10647;51.016;3.720;2023-03-11T00:51:19;2.70;99.90
20977;DHT22;10647;51.016;3.720;2023-03-11T00:53:47;2.60;99.90
20977;DHT22;10647;51.016;3.720;2023-03-11T00:56:15;2.60;99.90
20977;DHT22;10647;51.016;3.720;2023-03-11T00:58:43;2.60;99.90
20977;DHT22;10647;51.016;3.720;2023-03-11T01:01:14;2.50;99.90
20977;DHT22;10647;51.016;3.720;2023-03-11T01:03:42;2.50;99.90
20977;DHT22;10647;51.016;3.720;2023-03-11T01:06:10;2.50;99.90
20977;DHT22;10647;51.016;3.720;2023-03-11T01:08:38;2.50;99.90
20977;DHT22;10647;51.016;3.720;2023-03-11T01:11:25;2.50;99.90
20977;DHT22;10647;51.016;3.720;2023-03-11T01:13:52;2.50;99.90
20977;DHT22;10647;51.016;3.720;2023-03-11T01:16:22;2.50;99.90
20977;DHT22;10647;51.016;3.720;2023-03-11T01:18:50;2.60;99.90
20977;DHT22;10647;51.016;3.720;2023-03-11T01:21:17;2.60;99.90
20977;DHT22;10647;51.016;3.720;2023-03-11T01:23:45;2.70;99.90
20977;DHT22;10647;51.016;3.720;2023-03-11T01:26:13;2.70;99.90
20977;DHT22;10647;51.016;3.720;2023-03-11T01:28:41;2.70;99.90
20977;DHT22;10647;51.016;3.720;2023-03-11T01:31:11;2.80;99.90
20977;DHT22;10647;51.016;3.720;2023-03-11T01:33:45;2.80;99.90
20977;DHT22;10647;51.016;3.720;2023-03-11T01:36:13;2.90;99.90
20977;DHT22;10647;51.016;3.720;2023-03-11T01:38:41;3.00;99.90
20977;DHT22;10647;51.016;3.720;2023-03-11T01:41:08;3.00;99.90
20977;DHT22;10647;51.016;3.720;2023-03-11T01:46:36;3.10;99.90
20977;DHT22;10647;51.016;3.720;2023-03-11T01:49:08;3.10;99.90
20977;DHT22;10647;51.016;3.720;2023-03-11T01:54:34;3.20;99.90
20977;DHT22;10647;51.016;3.720;2023-03-11T01:57:05;3.30;99.90
20977;DHT22;10647;51.016;3.720;2023-03-11T01:59:37;3.30;99.90
20977;DHT22;10647;51.016;3.720;2023-03-11T02:02:10;3.40;99.90
20977;DHT22;10647;51.016;3.720;2023-03-11T02:04:38;3.50;99.90
20977;DHT22;10647;51.016;3.720;2023-03-11T02:07:08;3.50;99.90
20977;DHT22;10647;51.016;3.720;2023-03-11T02:09:36;3.50;99.90
20977;DHT22;10647;51.016;3.720;2023-03-11T02:12:05;3.60;99.90
20977;DHT22;10647;51.016;3.720;2023-03-11T02:14:35;3.60;99.90
20977;DHT22;10647;51.016;3.720;2023-03-11T02:17:04;3.70;99.90
20977;DHT22;10647;51.016;3.720;2023-03-11T02:19:50;3.70;99.90
20977;DHT22;10647;51.016;3.720;2023-03-11T02:22:15;3.70;99.90
20977;DHT22;10647;51.016;3.720;2023-03-11T02:27:47;3.60;99.90
20977;DHT22;10647;51.016;3.720;2023-03-11T02:30:16;3.50;99.90
20977;DHT22;10647;51.016;3.720;2023-03-11T02:32:45;3.40;99.90
20977;DHT22;10647;51.016;3.720;2023-03-11T02:35:15;3.30;99.90
20977;DHT22;10647;51.016;3.720;2023-03-11T02:37:44;3.30;99.90
20977;DHT22;10647;51.016;3.720;2023-03-11T02:42:59;3.20;99.90
20977;DHT22;10647;51.016;3.720;2023-03-11T02:45:24;3.20;99.90
20977;DHT22;10647;51.016;3.720;2023-03-11T02:47:55;3.20;99.90
20977;DHT22;10647;51.016;3.720;2023-03-11T02:50:24;3.10;99.90
20977;DHT22;10647;51.016;3.720;2023-03-11T02:52:52;3.10;99.90
20977;DHT22;10647;51.016;3.720;2023-03-11T02:55:21;3.10;99.90
20977;DHT22;10647;51.016;3.720;2023-03-11T02:57:48;3.10;99.90
20977;DHT22;10647;51.016;3.720;2023-03-11T03:00:17;3.10;99.90
20977;DHT22;10647;51.016;3.720;2023-03-11T03:02:45;3.10;99.90
20977;DHT22;10647;51.016;3.720;2023-03-11T03:05:14;3.20;99.90
20977;DHT22;10647;51.016;3.720;2023-03-11T03:07:42;3.20;99.90
20977;DHT22;10647;51.016;3.720;2023-03-11T03:10:11;3.20;99.90
20977;DHT22;10647;51.016;3.720;2023-03-11T03:12:41;3.20;99.90
20977;DHT22;10647;51.016;3.720;2023-03-11T03:15:10;3.20;99.90
20977;DHT22;10647;51.016;3.720;2023-03-11T03:17:38;3.20;99.90
20977;DHT22;10647;51.016;3.720;2023-03-11T03:20:06;3.20;99.90
20977;DHT22;10647;51.016;3.720;2023-03-11T03:22:39;3.10;99.90
20977;DHT22;10647;51.016;3.720;2023-03-11T03:25:08;3.10;99.90
20977;DHT22;10647;51.016;3.720;2023-03-11T03:27:37;3.10;99.90
20977;DHT22;10647;51.016;3.720;2023-03-11T03:30:06;3.10;99.90
20977;DHT22;10647;51.016;3.720;2023-03-11T03:32:35;3.10;99.90
20977;DHT22;10647;51.016;3.720;2023-03-11T03:35:03;3.10;99.90
20977;DHT22;10647;51.016;3.720;2023-03-11T03:37:50;3.10;99.90
20977;DHT22;10647;51.016;3.720;2023-03-11T03:40:18;3.10;99.90
20977;DHT22;10647;51.016;3.720;2023-03-11T03:42:46;3.10;99.90
20977;DHT22;10647;51.016;3.720;2023-03-11T03:45:15;3.00;99.90
20977;DHT22;10647;51.016;3.720;2023-03-11T03:47:43;3.00;99.90
20977;DHT22;10647;51.016;3.720;2023-03-11T03:50:11;3.00;99.90
20977;DHT22;10647;51.016;3.720;2023-03-11T03:52:42;2.90;99.90
20977;DHT22;10647;51.016;3.720;2023-03-11T03:55:11;2.80;99.90
20977;DHT22;10647;51.016;3.720;2023-03-11T03:57:39;2.80;99.90
20977;DHT22;10647;51.016;3.720;2023-03-11T04:00:07;2.80;99.90
20977;DHT22;10647;51.016;3.720;2023-03-11T04:02:35;2.70;99.90
20977;DHT22;10647;51.016;3.720;2023-03-11T04:05:02;2.60;99.90
20977;DHT22;10647;51.016;3.720;2023-03-11T04:07:30;2.60;99.90
20977;DHT22;10647;51.016;3.720;2023-03-11T04:10:06;2.60;99.90
20977;DHT22;10647;51.016;3.720;2023-03-11T04:12:34;2.50;99.90
20977;DHT22;10647;51.016;3.720;2023-03-11T04:15:04;2.50;99.90
20977;DHT22;10647;51.016;3.720;2023-03-11T04:17:32;2.40;99.90
20977;DHT22;10647;51.016;3.720;2023-03-11T04:20:00;2.40;99.90
20977;DHT22;10647;51.016;3.720;2023-03-11T04:22:27;2.40;99.90
20977;DHT22;10647;51.016;3.720;2023-03-11T04:24:55;2.40;99.90
20977;DHT22;10647;51.016;3.720;2023-03-11T04:27:28;2.40;99.90
20977;DHT22;10647;51.016;3.720;2023-03-11T04:29:56;2.30;99.90
20977;DHT22;10647;51.016;3.720;2023-03-11T04:32:42;2.30;99.90
20977;DHT22;10647;51.016;3.720;2023-03-11T04:35:10;2.30;99.90
20977;DHT22;10647;51.016;3.720;2023-03-11T04:37:38;2.30;99.90
20977;DHT22;10647;51.016;3.720;2023-03-11T04:42:56;2.20;99.90
20977;DHT22;10647;51.016;3.720;2023-03-11T04:45:30;2.20;99.90
20977;DHT22;10647;51.016;3.720;2023-03-11T04:48:03;2.20;99.90
20977;DHT22;10647;51.016;3.720;2023-03-11T04:50:33;2.20;99.90
20977;DHT22;10647;51.016;3.720;2023-03-11T04:53:00;2.10;99.90
20977;DHT22;10647;51.016;3.720;2023-03-11T04:55:28;2.10;99.90
20977;DHT22;10647;51.016;3.720;2023-03-11T04:57:56;2.10;99.90
20977;DHT22;10647;51.016;3.720;2023-03-11T05:00:23;2.10;99.90
20977;DHT22;10647;51.016;3.720;2023-03-11T05:02:51;2.10;99.90
20977;DHT22;10647;51.016;3.720;2023-03-11T05:05:19;2.10;99.90
20977;DHT22;10647;51.016;3.720;2023-03-11T05:07:47;2.10;99.90
20977;DHT22;10647;51.016;3.720;2023-03-11T05:10:15;2.10;99.90
20977;DHT22;10647;51.016;3.720;2023-03-11T05:12:48;2.10;99.90
20977;DHT22;10647;51.016;3.720;2023-03-11T05:15:16;2.10;99.90
20977;DHT22;10647;51.016;3.720;2023-03-11T05:17:44;2.10;99.90
20977;DHT22;10647;51.016;3.720;2023-03-11T05:20:12;2.00;99.90
20977;DHT22;10647;51.016;3.720;2023-03-11T05:22:45;2.00;99.90
20977;DHT22;10647;51.016;3.720;2023-03-11T05:25:13;2.00;99.90
20977;DHT22;10647;51.016;3.720;2023-03-11T05:27:43;2.00;99.90
20977;DHT22;10647;51.016;3.720;2023-03-11T05:30:11;2.00;99.90
20977;DHT22;10647;51.016;3.720;2023-03-11T05:32:41;2.00;99.90
20977;DHT22;10647;51.016;3.720;2023-03-11T05:35:15;2.00;99.90
20977;DHT22;10647;51.016;3.720;2023-03-11T05:37:45;1.90;99.90
20977;DHT22;10647;51.016;3.720;2023-03-11T05:40:15;1.90;99.90
20977;DHT22;10647;51.016;3.720;2023-03-11T05:42:42;1.90;99.90
20977;DHT22;10647;51.016;3.720;2023-03-11T05:45:10;1.90;99.90
20977;DHT22;10647;51.016;3.720;2023-03-11T05:47:43;1.90;99.90
20977;DHT22;10647;51.016;3.720;2023-03-11T05:50:13;1.90;99.90
20977;DHT22;10647;51.016;3.720;2023-03-11T05:52:46;1.90;99.90
20977;DHT22;10647;51.016;3.720;2023-03-11T05:55:14;1.80;99.90
20977;DHT22;10647;51.016;3.720;2023-03-11T05:57:41;1.80;99.90
20977;DHT22;10647;51.016;3.720;2023-03-11T06:00:10;1.80;99.90
20977;DHT22;10647;51.016;3.720;2023-03-11T06:05:26;1.80;99.90
20977;DHT22;10647;51.016;3.720;2023-03-11T06:07:54;1.80;99.90
20977;DHT22;10647;51.016;3.720;2023-03-11T06:10:21;1.80;99.90
20977;DHT22;10647;51.016;3.720;2023-03-11T06:12:49;1.80;99.90
20977;DHT22;10647;51.016;3.720;2023-03-11T06:15:19;1.90;99.90
20977;DHT22;10647;51.016;3.720;2023-03-11T06:17:46;2.10;99.90
20977;DHT22;10647;51.016;3.720;2023-03-11T06:20:14;2.10;99.90
20977;DHT22;10647;51.016;3.720;2023-03-11T06:22:41;2.20;99.90
20977;DHT22;10647;51.016;3.720;2023-03-11T06:25:28;2.30;99.90
20977;DHT22;10647;51.016;3.720;2023-03-11T06:27:57;2.30;99.90
20977;DHT22;10647;51.016;3.720;2023-03-11T06:30:24;2.40;99.90
20977;DHT22;10647;51.016;3.720;2023-03-11T06:32:52;2.50;99.90
20977;DHT22;10647;51.016;3.720;2023-03-11T06:35:39;2.50;99.90
20977;DHT22;10647;51.016;3.720;2023-03-11T06:38:09;2.60;99.90
20977;DHT22;10647;51.016;3.720;2023-03-11T06:40:43;2.60;99.90
20977;DHT22;10647;51.016;3.720;2023-03-11T06:43:17;2.70;99.90
20977;DHT22;10647;51.016;3.720;2023-03-11T06:45:45;2.70;99.90
20977;DHT22;10647;51.016;3.720;2023-03-11T06:48:32;2.70;99.90
20977;DHT22;10647;51.016;3.720;2023-03-11T06:51:00;2.80;99.90
20977;DHT22;10647;51.016;3.720;2023-03-11T06:53:29;2.80;99.90
20977;DHT22;10647;51.016;3.720;2023-03-11T06:55:59;2.90;99.90
20977;DHT22;10647;51.016;3.720;2023-03-11T07:04:11;3.00;99.90
20977;DHT22;10647;51.016;3.720;2023-03-11T07:06:41;3.00;99.90
20977;DHT22;10647;51.016;3.720;2023-03-11T07:09:13;3.00;99.90
20977;DHT22;10647;51.016;3.720;2023-03-11T07:11:40;3.10;99.90
20977;DHT22;10647;51.016;3.720;2023-03-11T07:14:08;3.10;99.90
20977;DHT22;10647;51.016;3.720;2023-03-11T07:16:38;3.20;99.90
20977;DHT22;10647;51.016;3.720;2023-03-11T07:19:06;3.20;99.90
20977;DHT22;10647;51.016;3.720;2023-03-11T07:21:35;3.20;99.90
20977;DHT22;10647;51.016;3.720;2023-03-11T07:24:04;3.20;99.90
20977;DHT22;10647;51.016;3.720;2023-03-11T07:26:33;3.30;99.90
20977;DHT22;10647;51.016;3.720;2023-03-11T07:29:01;3.30;99.90
20977;DHT22;10647;51.016;3.720;2023-03-11T07:34:17;3.40;99.90
20977;DHT22;10647;51.016;3.720;2023-03-11T07:36:46;3.40;99.90
20977;DHT22;10647;51.016;3.720;2023-03-11T07:39:16;3.50;99.90
20977;DHT22;10647;51.016;3.720;2023-03-11T07:41:44;3.50;99.90
20977;DHT22;10647;51.016;3.720;2023-03-11T07:44:13;3.60;99.90
20977;DHT22;10647;51.016;3.720;2023-03-11T07:46:41;3.70;99.90
20977;DHT22;10647;51.016;3.720;2023-03-11T07:49:09;3.70;99.90
20977;DHT22;10647;51.016;3.720;2023-03-11T07:51:37;3.80;99.90
20977;DHT22;10647;51.016;3.720;2023-03-11T07:54:26;3.80;99.90
20977;DHT22;10647;51.016;3.720;2023-03-11T07:56:54;3.90;99.90
20977;DHT22;10647;51.016;3.720;2023-03-11T07:59:22;4.00;99.90
20977;DHT22;10647;51.016;3.720;2023-03-11T08:01:55;4.10;99.90
20977;DHT22;10647;51.016;3.720;2023-03-11T08:04:23;4.00;99.90
20977;DHT22;10647;51.016;3.720;2023-03-11T08:06:51;4.10;99.90
20977;DHT22;10647;51.016;3.720;2023-03-11T08:09:18;4.30;99.90
20977;DHT22;10647;51.016;3.720;2023-03-11T08:11:46;4.40;99.90
20977;DHT22;10647;51.016;3.720;2023-03-11T08:14:13;4.70;99.90
20977;DHT22;10647;51.016;3.720;2023-03-11T08:16:41;4.80;99.90
20977;DHT22;10647;51.016;3.720;2023-03-11T08:19:14;5.00;99.90
20977;DHT22;10647;51.016;3.720;2023-03-11T08:21:42;5.10;99.90
20977;DHT22;10647;51.016;3.720;2023-03-11T08:24:12;5.10;99.90
20977;DHT22;10647;51.016;3.720;2023-03-11T08:26:40;5.00;99.90
20977;DHT22;10647;51.016;3.720;2023-03-11T08:29:08;5.00;99.90
20977;DHT22;10647;51.016;3.720;2023-03-11T08:31:38;4.90;99.90
20977;DHT22;10647;51.016;3.720;2023-03-11T08:34:21;5.00;99.90
20977;DHT22;10647;51.016;3.720;2023-03-11T08:36:48;5.20;99.90
20977;DHT22;10647;51.016;3.720;2023-03-11T08:39:16;5.30;99.90
20977;DHT22;10647;51.016;3.720;2023-03-11T08:41:44;5.40;99.90
20977;DHT22;10647;51.016;3.720;2023-03-11T08:44:12;5.60;99.90
20977;DHT22;10647;51.016;3.720;2023-03-11T08:46:39;5.80;99.90
20977;DHT22;10647;51.016;3.720;2023-03-11T08:49:07;6.00;99.90
20977;DHT22;10647;51.016;3.720;2023-03-11T08:51:35;6.30;99.90
20977;DHT22;10647;51.016;3.720;2023-03-11T08:54:03;6.50;99.90
20977;DHT22;10647;51.016;3.720;2023-03-11T08:56:30;6.60;99.90
20977;DHT22;10647;51.016;3.720;2023-03-11T08:58:59;6.80;99.90
20977;DHT22;10647;51.016;3.720;2023-03-11T09:01:26;6.90;99.90
20977;DHT22;10647;51.016;3.720;2023-03-11T09:03:55;7.00;99.90
20977;DHT22;10647;51.016;3.720;2023-03-11T09:06:23;7.20;99.90
20977;DHT22;10647;51.016;3.720;2023-03-11T09:08:51;7.30;99.90
20977;DHT22;10647;51.016;3.720;2023-03-11T09:11:19;7.30;99.90
20977;DHT22;10647;51.016;3.720;2023-03-11T09:13:50;7.30;99.90
20977;DHT22;10647;51.016;3.720;2023-03-11T09:16:34;7.20;99.90
20977;DHT22;10647;51.016;3.720;2023-03-11T09:19:02;7.20;99.90
20977;DHT22;10647;51.016;3.720;2023-03-11T09:21:31;7.20;99.90
20977;DHT22;10647;51.016;3.720;2023-03-11T09:24:00;7.30;99.90
20977;DHT22;10647;51.016;3.720;2023-03-11T09:26:30;7.40;99.90
20977;DHT22;10647;51.016;3.720;2023-03-11T09:28:57;7.50;99.90
20977;DHT22;10647;51.016;3.720;2023-03-11T09:31:26;7.60;99.90
20977;DHT22;10647;51.016;3.720;2023-03-11T09:33:56;7.70;99.90
20977;DHT22;10647;51.016;3.720;2023-03-11T09:36:24;7.70;99.90
20977;DHT22;10647;51.016;3.720;2023-03-11T09:38:51;7.70;99.90
20977;DHT22;10647;51.016;3.720;2023-03-11T09:41:45;7.80;99.90
20977;DHT22;10647;51.016;3.720;2023-03-11T09:55:42;8.50;99.90
20977;DHT22;10647;51.016;3.720;2023-03-11T10:00:58;9.70;99.90
20977;DHT22;10647;51.016;3.720;2023-03-11T10:03:30;10.00;99.90
20977;DHT22;10647;51.016;3.720;2023-03-11T10:06:43;10.20;99.90
20977;DHT22;10647;51.016;3.720;2023-03-11T10:13:56;10.60;99.90
20977;DHT22;10647;51.016;3.720;2023-03-11T10:16:28;10.80;99.90
20977;DHT22;10647;51.016;3.720;2023-03-11T10:19:09;11.00;99.90
20977;DHT22;10647;51.016;3.720;2023-03-11T10:21:46;11.10;99.90
20977;DHT22;10647;51.016;3.720;2023-03-11T10:24:24;11.20;99.90
20977;DHT22;10647;51.016;3.720;2023-03-11T10:26:50;11.30;99.90
20977;DHT22;10647;51.016;3.720;2023-03-11T10:29:54;11.40;99.90
20977;DHT22;10647;51.016;3.720;2023-03-11T10:32:41;11.50;99.90
20977;DHT22;10647;51.016;3.720;2023-03-11T10:35:17;11.60;99.90
20977;DHT22;10647;51.016;3.720;2023-03-11T10:37:52;11.60;99.90
20977;DHT22;10647;51.016;3.720;2023-03-11T10:43:13;11.40;99.90
20977;DHT22;10647;51.016;3.720;2023-03-11T10:45:38;11.20;99.90
20977;DHT22;10647;51.016;3.720;2023-03-11T10:48:13;11.20;99.90
20977;DHT22;10647;51.016;3.720;2023-03-11T10:53:24;11.40;99.90
20977;DHT22;10647;51.016;3.720;2023-03-11T10:55:53;11.50;99.90
20977;DHT22;10647;51.016;3.720;2023-03-11T10:58:26;11.50;99.90
20977;DHT22;10647;51.016;3.720;2023-03-11T11:03:45;12.00;99.90
20977;DHT22;10647;51.016;3.720;2023-03-11T11:09:21;12.40;99.90
20977;DHT22;10647;51.016;3.720;2023-03-11T11:12:14;12.40;99.90
20977;DHT22;10647;51.016;3.720;2023-03-11T11:14:51;12.30;99.90
20977;DHT22;10647;51.016;3.720;2023-03-11T11:17:23;12.40;99.90
20977;DHT22;10647;51.016;3.720;2023-03-11T11:22:50;12.80;99.90
20977;DHT22;10647;51.016;3.720;2023-03-11T11:25:54;12.90;99.90
20977;DHT22;10647;51.016;3.720;2023-03-11T11:28:12;12.80;99.90
20977;DHT22;10647;51.016;3.720;2023-03-11T11:30:32;12.90;99.90
20977;DHT22;10647;51.016;3.720;2023-03-11T11:33:18;13.30;99.90
20977;DHT22;10647;51.016;3.720;2023-03-11T11:35:30;13.40;99.90
20977;DHT22;10647;51.016;3.720;2023-03-11T11:38:02;13.50;99.90
20977;DHT22;10647;51.016;3.720;2023-03-11T11:40:32;13.60;99.90
20977;DHT22;10647;51.016;3.720;2023-03-11T11:43:09;13.70;99.90
20977;DHT22;10647;51.016;3.720;2023-03-11T11:45:43;13.90;99.90
20977;DHT22;10647;51.016;3.720;2023-03-11T11:51:15;14.00;99.90
20977;DHT22;10647;51.016;3.720;2023-03-11T11:53:44;14.10;99.90
20977;DHT22;10647;51.016;3.720;2023-03-11T11:56:13;14.40;99.90
20977;DHT22;10647;51.016;3.720;2023-03-11T11:58:42;14.50;99.90
20977;DHT22;10647;51.016;3.720;2023-03-11T12:13:18;14.70;99.90
20977;DHT22;10647;51.016;3.720;2023-03-11T12:18:58;14.90;99.90
20977;DHT22;10647;51.016;3.720;2023-03-11T12:21:50;14.80;99.90
20977;DHT22;10647;51.016;3.720;2023-03-11T12:25:11;14.60;99.90
20977;DHT22;10647;51.016;3.720;2023-03-11T12:30:40;14.20;99.90
20977;DHT22;10647;51.016;3.720;2023-03-11T12:33:06;14.00;99.90
20977;DHT22;10647;51.016;3.720;2023-03-11T12:35:35;13.90;99.90
20977;DHT22;10647;51.016;3.720;2023-03-11T12:43:59;13.10;99.90
20977;DHT22;10647;51.016;3.720;2023-03-11T12:49:24;12.70;99.90
20977;DHT22;10647;51.016;3.720;2023-03-11T12:57:35;12.80;99.90
20977;DHT22;10647;51.016;3.720;2023-03-11T13:06:10;12.70;99.90
20977;DHT22;10647;51.016;3.720;2023-03-11T13:11:36;12.80;99.90
20977;DHT22;10647;51.016;3.720;2023-03-11T13:17:26;14.20;99.90
20977;DHT22;10647;51.016;3.720;2023-03-11T13:19:57;13.80;99.90
20977;DHT22;10647;51.016;3.720;2023-03-11T13:23:06;15.80;99.90
20977;DHT22;10647;51.016;3.720;2023-03-11T13:25:34;16.20;99.90
20977;DHT22;10647;51.016;3.720;2023-03-11T13:33:55;14.50;99.90
20977;DHT22;10647;51.016;3.720;2023-03-11T13:41:36;18.70;99.90
20977;DHT22;10647;51.016;3.720;2023-03-11T13:44:22;21.00;99.90
20977;DHT22;10647;51.016;3.720;2023-03-11T13:47:06;22.00;99.90
20977;DHT22;10647;51.016;3.720;2023-03-11T13:52:02;24.00;99.90
20977;DHT22;10647;51.016;3.720;2023-03-11T13:54:47;23.60;99.90
20977;DHT22;10647;51.016;3.720;2023-03-11T13:57:27;23.80;99.90
20977;DHT22;10647;51.016;3.720;2023-03-11T13:59:56;23.90;99.90
20977;DHT22;10647;51.016;3.720;2023-03-11T14:02:25;23.30;99.90
20977;DHT22;10647;51.016;3.720;2023-03-11T14:04:56;21.30;99.90
20977;DHT22;10647;51.016;3.720;2023-03-11T14:07:29;20.40;99.90
20977;DHT22;10647;51.016;3.720;2023-03-11T14:10:23;20.30;99.90
20977;DHT22;10647;51.016;3.720;2023-03-11T14:12:51;20.50;99.90
20977;DHT22;10647;51.016;3.720;2023-03-11T14:15:21;21.40;99.90
20977;DHT22;10647;51.016;3.720;2023-03-11T14:17:51;22.20;99.90
20977;DHT22;10647;51.016;3.720;2023-03-11T14:20:21;22.30;99.90
20977;DHT22;10647;51.016;3.720;2023-03-11T14:22:55;22.10;99.90
20977;DHT22;10647;51.016;3.720;2023-03-11T14:25:25;23.10;99.90
20977;DHT22;10647;51.016;3.720;2023-03-11T14:28:03;23.20;99.90
20977;DHT22;10647;51.016;3.720;2023-03-11T14:30:28;24.10;99.90
20977;DHT22;10647;51.016;3.720;2023-03-11T14:35:31;21.90;99.90
20977;DHT22;10647;51.016;3.720;2023-03-11T14:37:59;20.40;99.90
20977;DHT22;10647;51.016;3.720;2023-03-11T14:40:31;19.50;99.90
20977;DHT22;10647;51.016;3.720;2023-03-11T14:43:02;18.90;99.90
20977;DHT22;10647;51.016;3.720;2023-03-11T14:45:35;18.30;99.90
20977;DHT22;10647;51.016;3.720;2023-03-11T14:48:13;17.60;99.90
20977;DHT22;10647;51.016;3.720;2023-03-11T14:50:42;17.20;99.90
20977;DHT22;10647;51.016;3.720;2023-03-11T14:53:16;16.80;99.90
20977;DHT22;10647;51.016;3.720;2023-03-11T14:55:48;16.70;99.90
20977;DHT22;10647;51.016;3.720;2023-03-11T14:58:29;17.00;99.90
20977;DHT22;10647;51.016;3.720;2023-03-11T15:01:23;16.60;99.90
20977;DHT22;10647;51.016;3.720;2023-03-11T15:03:56;17.60;99.90
20977;DHT22;10647;51.016;3.720;2023-03-11T15:06:28;20.00;99.90
20977;DHT22;10647;51.016;3.720;2023-03-11T15:09:11;21.40;99.90
20977;DHT22;10647;51.016;3.720;2023-03-11T15:11:58;22.50;99.90
20977;DHT22;10647;51.016;3.720;2023-03-11T15:17:18;24.00;99.90
20977;DHT22;10647;51.016;3.720;2023-03-11T15:19:46;23.50;99.90
20977;DHT22;10647;51.016;3.720;2023-03-11T15:22:25;23.00;99.90
20977;DHT22;10647;51.016;3.720;2023-03-11T15:24:56;21.90;99.90
20977;DHT22;10647;51.016;3.720;2023-03-11T15:27:32;20.90;99.90
20977;DHT22;10647;51.016;3.720;2023-03-11T15:30:03;20.50;99.90
20977;DHT22;10647;51.016;3.720;2023-03-11T15:32:40;19.80;99.90
20977;DHT22;10647;51.016;3.720;2023-03-11T15:37:39;18.30;99.90
20977;DHT22;10647;51.016;3.720;2023-03-11T15:40:25;18.00;99.90
20977;DHT22;10647;51.016;3.720;2023-03-11T15:43:18;18.00;99.90
20977;DHT22;10647;51.016;3.720;2023-03-11T15:45:43;18.10;99.90
20977;DHT22;10647;51.016;3.720;2023-03-11T15:48:11;18.00;99.90
20977;DHT22;10647;51.016;3.720;2023-03-11T15:50:52;17.80;99.90
20977;DHT22;10647;51.016;3.720;2023-03-11T15:53:21;17.30;99.90
20977;DHT22;10647;51.016;3.720;2023-03-11T15:55:49;16.90;99.90
20977;DHT22;10647;51.016;3.720;2023-03-11T15:58:19;16.60;99.90
20977;DHT22;10647;51.016;3.720;2023-03-11T16:00:49;16.40;99.90
20977;DHT22;10647;51.016;3.720;2023-03-11T16:03:20;16.10;99.90
20977;DHT22;10647;51.016;3.720;2023-03-11T16:05:47;16.00;99.90
20977;DHT22;10647;51.016;3.720;2023-03-11T16:08:15;15.90;99.90
20977;DHT22;10647;51.016;3.720;2023-03-11T16:10:43;15.70;99.90
20977;DHT22;10647;51.016;3.720;2023-03-11T16:16:16;15.30;99.90
20977;DHT22;10647;51.016;3.720;2023-03-11T16:18:45;15.10;99.90
20977;DHT22;10647;51.016;3.720;2023-03-11T16:21:21;15.00;99.90
20977;DHT22;10647;51.016;3.720;2023-03-11T16:23:52;15.20;99.90
20977;DHT22;10647;51.016;3.720;2023-03-11T16:26:21;15.20;99.90
20977;DHT22;10647;51.016;3.720;2023-03-11T16:28:51;15.10;99.90
20977;DHT22;10647;51.016;3.720;2023-03-11T16:31:38;14.90;99.90
20977;DHT22;10647;51.016;3.720;2023-03-11T16:34:05;14.80;99.90
20977;DHT22;10647;51.016;3.720;2023-03-11T16:36:33;14.60;99.90
20977;DHT22;10647;51.016;3.720;2023-03-11T16:39:00;14.50;99.90
20977;DHT22;10647;51.016;3.720;2023-03-11T16:41:28;14.40;99.90
20977;DHT22;10647;51.016;3.720;2023-03-11T16:43:57;14.30;99.90
20977;DHT22;10647;51.016;3.720;2023-03-11T16:46:25;14.30;99.90
20977;DHT22;10647;51.016;3.720;2023-03-11T16:48:53;14.00;99.90
20977;DHT22;10647;51.016;3.720;2023-03-11T16:51:20;13.90;99.90
20977;DHT22;10647;51.016;3.720;2023-03-11T16:53:48;13.70;99.90
20977;DHT22;10647;51.016;3.720;2023-03-11T16:56:16;13.60;99.90
20977;DHT22;10647;51.016;3.720;2023-03-11T16:58:44;13.50;99.90
20977;DHT22;10647;51.016;3.720;2023-03-11T17:01:14;13.40;99.90
20977;DHT22;10647;51.016;3.720;2023-03-11T17:03:43;13.30;99.90
20977;DHT22;10647;51.016;3.720;2023-03-11T17:06:13;13.10;99.90
20977;DHT22;10647;51.016;3.720;2023-03-11T17:08:40;13.00;99.90
20977;DHT22;10647;51.016;3.720;2023-03-11T17:11:20;12.80;99.90
20977;DHT22;10647;51.016;3.720;2023-03-11T17:13:43;12.70;99.90
20977;DHT22;10647;51.016;3.720;2023-03-11T17:16:11;12.50;99.90
20977;DHT22;10647;51.016;3.720;2023-03-11T17:18:38;12.40;99.90
20977;DHT22;10647;51.016;3.720;2023-03-11T17:21:08;12.30;99.90
20977;DHT22;10647;51.016;3.720;2023-03-11T17:23:40;12.30;99.90
20977;DHT22;10647;51.016;3.720;2023-03-11T17:26:10;12.20;99.90
20977;DHT22;10647;51.016;3.720;2023-03-11T17:28:38;12.10;99.90
20977;DHT22;10647;51.016;3.720;2023-03-11T17:31:11;12.00;99.90
20977;DHT22;10647;51.016;3.720;2023-03-11T17:33:59;11.90;99.90
20977;DHT22;10647;51.016;3.720;2023-03-11T17:36:26;11.80;99.90
20977;DHT22;10647;51.016;3.720;2023-03-11T17:38:54;11.60;99.90
20977;DHT22;10647;51.016;3.720;2023-03-11T17:41:22;11.60;99.90
20977;DHT22;10647;51.016;3.720;2023-03-11T17:43:49;11.50;99.90
20977;DHT22;10647;51.016;3.720;2023-03-11T17:46:18;11.50;99.90
20977;DHT22;10647;51.016;3.720;2023-03-11T17:48:46;11.40;99.90
20977;DHT22;10647;51.016;3.720;2023-03-11T17:51:22;11.30;99.90
20977;DHT22;10647;51.016;3.720;2023-03-11T17:53:46;11.20;99.90
20977;DHT22;10647;51.016;3.720;2023-03-11T17:59:02;11.10;99.90
20977;DHT22;10647;51.016;3.720;2023-03-11T18:01:30;11.00;99.90
20977;DHT22;10647;51.016;3.720;2023-03-11T18:03:57;10.80;99.90
20977;DHT22;10647;51.016;3.720;2023-03-11T18:06:26;10.80;99.90
20977;DHT22;10647;51.016;3.720;2023-03-11T18:08:55;10.70;99.90
20977;DHT22;10647;51.016;3.720;2023-03-11T18:11:24;10.60;99.90
20977;DHT22;10647;51.016;3.720;2023-03-11T18:13:52;10.60;99.90
20977;DHT22;10647;51.016;3.720;2023-03-11T18:16:23;10.60;99.90
20977;DHT22;10647;51.016;3.720;2023-03-11T18:18:51;10.50;99.90